createdAt,value
2017-11-06T00:02:05.480Z,9.45
2017-11-06T00:04:33.535Z,9.50
2017-11-06T00:07:01.599Z,10.48
2017-11-06T00:09:29.672Z,9.52
2017-11-06T00:11:57.714Z,8.15
2017-11-06T00:14:26.187Z,8.98
2017-11-06T00:16:54.244Z,8.85
2017-11-06T00:19:22.297Z,8.88
2017-11-06T00:21:50.365Z,8.30
2017-11-06T00:24:18.434Z,8.60
2017-11-06T00:26:47.246Z,8.80
2017-11-06T00:29:15.299Z,8.93
2017-11-06T00:31:43.375Z,8.52
2017-11-06T00:34:11.423Z,8.45
2017-11-06T00:36:39.490Z,8.63
2017-11-06T00:39:07.542Z,9.10
2017-11-06T00:41:37.106Z,7.45
2017-11-06T00:44:05.918Z,8.55
2017-11-06T00:46:33.995Z,8.85
2017-11-06T00:49:02.066Z,7.20
2017-11-06T00:51:30.191Z,6.87
2017-11-06T00:53:58.242Z,7.47
2017-11-06T00:56:26.302Z,7.45
2017-11-06T00:58:55.135Z,7.90
2017-11-06T01:01:23.958Z,7.60
2017-11-06T01:03:52.112Z,7.68
2017-11-06T01:06:20.554Z,6.78
2017-11-06T01:08:48.618Z,8.50
2017-11-06T01:11:16.670Z,8.23
2017-11-06T01:13:45.511Z,7.55
2017-11-06T01:16:13.559Z,8.18
2017-11-06T01:18:41.619Z,8.10
2017-11-06T01:21:09.676Z,8.80
2017-11-06T01:23:38.505Z,7.20
2017-11-06T01:26:06.560Z,7.93
2017-11-06T01:28:34.610Z,8.20
2017-11-06T01:31:03.446Z,8.85
2017-11-06T01:33:31.494Z,9.43
2017-11-06T01:36:00.310Z,7.60
2017-11-06T01:38:28.386Z,7.43
2017-11-06T01:40:56.434Z,6.55
2017-11-06T01:43:24.486Z,7.95
2017-11-06T01:45:54.054Z,7.00
2017-11-06T01:48:22.119Z,8.50
2017-11-06T01:50:50.167Z,7.28
2017-11-06T01:53:18.235Z,7.82
2017-11-06T01:55:46.291Z,8.55
2017-11-06T01:58:14.756Z,8.15
2017-11-06T02:00:43.604Z,8.48
2017-11-06T02:03:13.162Z,7.30
2017-11-06T02:05:41.223Z,7.97
2017-11-06T02:08:10.067Z,8.57
2017-11-06T02:10:38.119Z,8.38
2017-11-06T02:13:07.302Z,6.65
2017-11-06T02:15:35.367Z,7.47
2017-11-06T02:18:03.447Z,8.60
2017-11-06T02:20:31.513Z,8.25
2017-11-06T02:22:59.570Z,8.10
2017-11-06T02:25:28.397Z,8.68
2017-11-06T02:27:56.452Z,7.00
2017-11-06T02:30:24.522Z,7.72
2017-11-06T02:32:52.574Z,8.35
2017-11-06T02:35:21.394Z,7.97
2017-11-06T02:37:50.951Z,8.70
2017-11-06T02:40:19.059Z,8.95
2017-11-06T02:42:47.110Z,8.63
2017-11-06T02:45:15.913Z,7.12
2017-11-06T02:47:44.038Z,7.60
2017-11-06T02:50:12.083Z,9.15
2017-11-06T02:52:40.138Z,10.00
2017-11-06T02:55:08.500Z,7.28
2017-11-06T02:57:36.551Z,7.30
2017-11-06T03:00:05.358Z,7.37
2017-11-06T03:02:34.187Z,8.30
2017-11-06T03:05:02.241Z,8.02
2017-11-06T03:07:30.697Z,6.75
2017-11-06T03:09:58.746Z,8.27
2017-11-06T03:12:26.798Z,9.05
2017-11-06T03:14:55.624Z,8.00
2017-11-06T03:17:24.065Z,8.88
2017-11-06T03:19:52.125Z,8.13
2017-11-06T03:22:20.233Z,8.32
2017-11-06T03:24:48.676Z,7.70
2017-11-06T03:27:16.730Z,8.95
2017-11-06T03:29:44.789Z,8.60
2017-11-06T03:32:12.891Z,8.95
2017-11-06T03:34:41.683Z,8.45
2017-11-06T03:37:10.489Z,7.50
2017-11-06T03:39:38.546Z,6.82
2017-11-06T03:42:06.615Z,7.07
2017-11-06T03:44:34.658Z,8.50
2017-11-06T03:47:03.485Z,7.35
2017-11-06T03:49:31.533Z,7.55
2017-11-06T03:51:59.616Z,7.95
2017-11-06T03:54:27.645Z,8.50
2017-11-06T03:56:55.698Z,7.82
2017-11-06T03:59:24.544Z,8.27
2017-11-06T04:01:52.595Z,8.13
2017-11-06T04:04:21.046Z,8.98
2017-11-06T04:06:49.886Z,8.60
2017-11-06T04:09:17.938Z,8.60
2017-11-06T04:11:45.990Z,8.82
2017-11-06T04:14:14.821Z,8.20
2017-11-06T04:16:42.869Z,9.32
2017-11-06T04:19:11.702Z,9.25
2017-11-06T04:21:39.762Z,8.02
2017-11-06T04:24:08.954Z,9.82
2017-11-06T04:26:37.033Z,9.73
2017-11-06T04:29:05.087Z,10.15
2017-11-06T04:31:33.901Z,8.60
2017-11-06T04:34:01.989Z,9.60
2017-11-06T04:36:30.030Z,9.15
2017-11-06T04:38:58.087Z,11.27
2017-11-06T04:41:27.042Z,9.95
2017-11-06T04:43:55.873Z,10.15
2017-11-06T04:46:23.943Z,9.35
2017-11-06T04:48:51.989Z,9.70
2017-11-06T04:51:20.062Z,9.95
2017-11-06T04:53:48.147Z,11.05
2017-11-06T04:56:16.935Z,9.52
2017-11-06T04:58:45.007Z,9.90
2017-11-06T05:01:13.066Z,10.55
2017-11-06T05:03:41.525Z,10.57
2017-11-06T05:06:10.357Z,10.65
2017-11-06T05:08:38.418Z,10.52
2017-11-06T05:11:06.882Z,11.70
2017-11-06T05:13:35.025Z,10.55
2017-11-06T05:16:03.114Z,11.10
2017-11-06T05:18:31.939Z,9.95
2017-11-06T05:20:59.985Z,14.05
2017-11-06T05:23:28.454Z,11.80
2017-11-06T05:25:57.271Z,10.43
2017-11-06T05:28:25.334Z,10.63
2017-11-06T05:30:53.408Z,11.40
2017-11-06T05:33:21.462Z,11.07
2017-11-06T05:35:51.062Z,11.63
2017-11-06T05:38:20.701Z,10.80
2017-11-06T05:40:48.755Z,8.88
2017-11-06T05:43:18.158Z,11.05
2017-11-06T05:45:46.149Z,10.23
2017-11-06T05:48:14.211Z,9.85
2017-11-06T05:50:42.257Z,10.80
2017-11-06T05:53:10.344Z,10.95
2017-11-06T05:55:39.753Z,10.70
2017-11-06T05:58:08.499Z,12.43
2017-11-06T06:00:36.582Z,11.65
2017-11-06T06:03:04.642Z,11.80
2017-11-06T06:05:32.719Z,11.95
2017-11-06T06:08:00.783Z,12.27
2017-11-06T06:10:28.854Z,12.27
2017-11-06T06:12:56.929Z,12.13
2017-11-06T06:15:25.001Z,11.68
2017-11-06T06:17:54.590Z,12.93
2017-11-06T06:20:22.665Z,11.35
2017-11-06T06:22:51.845Z,10.65
2017-11-06T06:25:19.955Z,12.70
2017-11-06T06:27:48.041Z,10.13
2017-11-06T06:30:16.093Z,10.57
2017-11-06T06:32:44.185Z,13.45
2017-11-06T06:35:12.325Z,12.00
2017-11-06T06:37:41.842Z,11.80
2017-11-06T06:40:09.918Z,10.63
2017-11-06T06:42:37.981Z,13.45
2017-11-06T06:45:06.066Z,10.82
2017-11-06T06:47:34.133Z,11.32
2017-11-06T06:50:02.209Z,10.55
2017-11-06T06:52:30.365Z,10.75
2017-11-06T06:54:58.377Z,10.88
2017-11-06T06:57:27.218Z,10.98
2017-11-06T06:59:55.269Z,10.93
2017-11-06T07:02:23.338Z,10.40
2017-11-06T07:04:51.398Z,10.93
2017-11-06T07:07:19.462Z,9.82
2017-11-06T07:09:48.284Z,10.82
2017-11-06T07:12:17.117Z,9.93
2017-11-06T07:14:45.185Z,10.63
2017-11-06T07:17:13.254Z,10.45
2017-11-06T07:19:41.324Z,10.38
2017-11-06T07:22:09.385Z,11.20
2017-11-06T07:24:37.451Z,13.50
2017-11-06T07:27:06.270Z,11.85
2017-11-06T07:29:34.726Z,11.43
2017-11-06T07:32:02.781Z,12.90
2017-11-06T07:34:30.875Z,11.63
2017-11-06T07:36:58.957Z,11.45
2017-11-06T07:39:27.009Z,12.68
2017-11-06T07:41:55.869Z,11.30
2017-11-06T07:44:23.932Z,10.70
2017-11-06T07:46:51.982Z,12.90
2017-11-06T07:49:21.210Z,10.95
2017-11-06T07:51:49.261Z,10.15
2017-11-06T07:54:18.095Z,10.13
2017-11-06T07:56:46.333Z,11.15
2017-11-06T07:59:14.393Z,10.25
2017-11-06T08:01:43.246Z,11.35
2017-11-06T08:04:11.315Z,10.30
2017-11-06T08:06:39.761Z,9.63
2017-11-06T08:09:08.602Z,9.18
2017-11-06T08:11:36.658Z,9.98
2017-11-06T08:14:04.722Z,9.43
2017-11-06T08:16:32.797Z,10.25
2017-11-06T08:19:01.245Z,9.48
2017-11-06T08:21:30.081Z,8.68
2017-11-06T08:23:58.134Z,9.30
2017-11-06T08:26:26.226Z,9.70
2017-11-06T08:28:54.306Z,9.15
2017-11-06T08:31:22.761Z,10.07
2017-11-06T08:33:50.830Z,9.70
2017-11-06T08:36:18.889Z,8.07
2017-11-06T08:38:47.341Z,8.25
2017-11-06T08:41:16.205Z,9.60
2017-11-06T08:43:44.268Z,9.07
2017-11-06T08:46:12.353Z,8.40
2017-11-06T08:48:41.211Z,7.93
2017-11-06T08:51:09.270Z,8.30
2017-11-06T08:53:37.334Z,8.38
2017-11-06T08:56:05.419Z,9.35
2017-11-06T08:58:33.482Z,7.65
2017-11-06T09:01:01.544Z,7.70
2017-11-06T09:03:29.610Z,7.90
2017-11-06T09:05:57.682Z,6.78
2017-11-06T09:08:27.102Z,8.98
2017-11-06T09:10:55.072Z,7.87
2017-11-06T09:13:23.529Z,7.82
2017-11-06T09:15:51.978Z,7.72
2017-11-06T09:18:20.050Z,7.50
2017-11-06T09:20:48.106Z,6.05
2017-11-06T09:23:16.166Z,7.05
2017-11-06T09:25:44.229Z,6.93
2017-11-06T09:28:12.294Z,6.30
2017-11-06T09:30:40.352Z,6.87
2017-11-06T09:33:08.435Z,6.30
2017-11-06T09:35:36.516Z,7.10
2017-11-06T09:38:04.566Z,6.75
2017-11-06T09:40:32.623Z,8.15
2017-11-06T09:43:01.555Z,6.75
2017-11-06T09:45:30.345Z,5.85
2017-11-06T09:47:58.804Z,6.35
2017-11-06T09:50:26.899Z,6.35
2017-11-06T09:52:55.946Z,6.00
2017-11-06T09:55:24.798Z,6.80
2017-11-06T09:57:52.853Z,5.97
2017-11-06T10:00:20.927Z,7.40
2017-11-06T10:02:48.973Z,6.10
2017-11-06T10:05:17.084Z,6.90
2017-11-06T10:07:46.458Z,6.32
2017-11-06T10:10:14.440Z,6.40
2017-11-06T10:12:42.498Z,6.10
2017-11-06T10:15:10.553Z,5.78
2017-11-06T10:17:40.128Z,6.57
2017-11-06T10:20:08.186Z,6.37
2017-11-06T10:22:36.255Z,6.53
2017-11-06T10:25:04.311Z,6.43
2017-11-06T10:27:32.394Z,5.68
2017-11-06T10:30:00.450Z,5.45
2017-11-06T10:32:28.911Z,6.18
2017-11-06T10:34:57.750Z,7.35
2017-11-06T10:37:25.803Z,6.05
2017-11-06T10:39:53.878Z,6.18
2017-11-06T10:42:21.939Z,7.03
2017-11-06T10:44:50.002Z,7.32
2017-11-06T10:47:18.088Z,7.12
2017-11-06T10:49:46.137Z,5.95
2017-11-06T10:52:14.198Z,6.40
2017-11-06T10:54:43.025Z,6.07
2017-11-06T10:57:11.084Z,7.15
2017-11-06T10:59:39.154Z,6.60
2017-11-06T11:02:07.216Z,6.40
2017-11-06T11:04:35.278Z,5.57
2017-11-06T11:07:03.329Z,6.60
2017-11-06T11:09:31.406Z,7.28
2017-11-06T11:11:59.461Z,6.68
2017-11-06T11:14:28.933Z,6.68
2017-11-06T11:16:56.899Z,7.80
2017-11-06T11:19:25.382Z,6.65
2017-11-06T11:21:53.441Z,5.25
2017-11-06T11:24:21.480Z,6.10
2017-11-06T11:26:49.552Z,5.43
2017-11-06T11:29:17.623Z,5.20
2017-11-06T11:31:46.467Z,5.45
2017-11-06T11:34:14.522Z,5.25
2017-11-06T11:36:42.580Z,6.47
2017-11-06T11:39:10.650Z,5.87
2017-11-06T11:41:39.838Z,6.60
2017-11-06T11:44:09.046Z,5.57
2017-11-06T11:46:37.093Z,6.45
2017-11-06T11:49:05.175Z,8.05
2017-11-06T11:51:33.620Z,7.20
2017-11-06T11:54:01.685Z,7.30
2017-11-06T11:56:30.153Z,7.57
2017-11-06T11:58:59.710Z,7.72
2017-11-06T12:01:27.794Z,7.20
2017-11-06T12:03:55.837Z,7.53
2017-11-06T12:06:24.694Z,8.20
2017-11-06T12:08:52.746Z,7.35
2017-11-06T12:11:21.569Z,8.27
2017-11-06T12:13:50.046Z,8.65
2017-11-06T12:16:18.089Z,7.45
2017-11-06T12:18:46.154Z,7.37
2017-11-06T12:21:14.201Z,7.15
2017-11-06T12:23:42.665Z,6.37
2017-11-06T12:26:11.530Z,6.57
2017-11-06T12:28:39.601Z,6.97
2017-11-06T12:31:07.649Z,6.70
2017-11-06T12:33:36.102Z,6.35
2017-11-06T12:36:04.195Z,6.30
2017-11-06T12:38:32.649Z,6.55
2017-11-06T12:41:00.722Z,6.70
2017-11-06T12:43:28.784Z,6.35
2017-11-06T12:45:57.600Z,6.72
2017-11-06T12:48:25.666Z,6.65
2017-11-06T12:50:53.720Z,6.30
2017-11-06T12:53:21.809Z,6.10
2017-11-06T12:55:49.866Z,5.97
2017-11-06T12:58:17.925Z,9.43
2017-11-06T13:00:47.129Z,5.97
2017-11-06T13:03:15.184Z,6.30
2017-11-06T13:05:44.018Z,5.15
2017-11-06T13:08:12.842Z,5.53
2017-11-06T13:10:40.937Z,5.95
2017-11-06T13:13:10.133Z,5.03
2017-11-06T13:15:38.964Z,5.10
2017-11-06T13:18:07.056Z,5.95
2017-11-06T13:20:35.113Z,5.35
2017-11-06T13:23:03.167Z,4.68
2017-11-06T13:25:31.237Z,5.03
2017-11-06T13:27:59.462Z,5.75
2017-11-06T13:30:27.517Z,5.40
2017-11-06T13:32:55.586Z,5.25
2017-11-06T13:35:24.052Z,4.87
2017-11-06T13:37:52.817Z,5.15
2017-11-06T13:40:22.005Z,5.18
2017-11-06T13:42:50.842Z,5.22
2017-11-06T13:45:19.686Z,4.45
2017-11-06T13:47:48.503Z,5.10
2017-11-06T13:50:16.558Z,4.45
2017-11-06T13:52:45.011Z,5.68
2017-11-06T13:55:13.068Z,4.95
2017-11-06T13:57:41.135Z,5.10
2017-11-06T14:00:09.199Z,5.10
2017-11-06T14:02:37.257Z,4.15
2017-11-06T14:05:05.342Z,5.07
2017-11-06T14:07:33.398Z,4.32
2017-11-06T14:10:02.602Z,3.70
2017-11-06T14:12:30.670Z,5.00
2017-11-06T14:14:58.716Z,4.50
2017-11-06T14:17:26.797Z,4.97
2017-11-06T14:19:55.252Z,6.10
2017-11-06T14:22:23.710Z,5.95
2017-11-06T14:24:51.776Z,6.20
2017-11-06T14:27:19.858Z,7.28
2017-11-06T14:29:50.226Z,6.40
2017-11-06T14:32:18.277Z,7.30
2017-11-06T14:34:47.105Z,6.95
2017-11-06T14:37:15.150Z,6.10
2017-11-06T14:39:43.232Z,6.60
2017-11-06T14:42:11.282Z,6.47
2017-11-06T14:44:39.721Z,6.60
2017-11-06T14:47:07.774Z,6.00
2017-11-06T14:49:35.844Z,6.40
2017-11-06T14:52:03.925Z,6.20
2017-11-06T14:54:31.963Z,5.62
2017-11-06T14:57:00.022Z,5.00
2017-11-06T14:59:28.847Z,6.37
2017-11-06T15:01:56.910Z,5.55
2017-11-06T15:04:24.954Z,6.85
2017-11-06T15:06:53.065Z,6.18
2017-11-06T15:09:21.122Z,5.65
2017-11-06T15:11:49.178Z,6.25
2017-11-06T15:14:17.238Z,5.97
2017-11-06T15:16:46.797Z,5.82
2017-11-06T15:19:14.860Z,5.35
2017-11-06T15:21:42.907Z,4.80
2017-11-06T15:24:11.023Z,5.82
2017-11-06T15:26:39.079Z,8.15
2017-11-06T15:29:07.150Z,7.00
2017-11-06T15:31:35.194Z,7.50
2017-11-06T15:34:03.270Z,7.00
2017-11-06T15:36:32.092Z,6.18
2017-11-06T15:39:00.159Z,5.60
2017-11-06T15:41:28.226Z,6.78
2017-11-06T15:43:56.282Z,6.35
2017-11-06T15:46:25.480Z,5.90
2017-11-06T15:48:53.529Z,6.62
2017-11-06T15:51:21.601Z,5.85
2017-11-06T15:53:49.645Z,5.60
2017-11-06T15:56:17.698Z,4.55
2017-11-06T15:58:45.757Z,5.80
2017-11-06T16:01:13.804Z,4.57
2017-11-06T16:03:41.865Z,4.75
2017-11-06T16:06:11.061Z,4.68
2017-11-06T16:08:39.125Z,4.47
2017-11-06T16:11:07.189Z,4.72
2017-11-06T16:13:35.999Z,6.03
2017-11-06T16:16:04.078Z,5.37
2017-11-06T16:18:32.896Z,5.15
2017-11-06T16:21:00.941Z,5.40
2017-11-06T16:23:29.007Z,5.10
2017-11-06T16:25:57.066Z,6.75
2017-11-06T16:28:25.522Z,6.75
2017-11-06T16:30:54.342Z,5.85
2017-11-06T16:33:23.203Z,5.65
2017-11-06T16:35:52.023Z,9.95
2017-11-06T16:38:20.083Z,8.07
2017-11-06T16:40:48.142Z,7.65
2017-11-06T16:43:16.975Z,7.57
2017-11-06T16:45:45.058Z,6.25
2017-11-06T16:48:13.106Z,6.50
2017-11-06T16:50:41.150Z,5.43
2017-11-06T16:53:09.982Z,5.45
2017-11-06T16:55:38.057Z,4.70
2017-11-06T16:58:06.094Z,3.92
2017-11-06T17:00:34.142Z,4.35
2017-11-06T17:03:02.982Z,3.62
2017-11-06T17:05:31.078Z,3.97
2017-11-06T17:07:59.137Z,3.45
2017-11-06T17:10:27.217Z,4.25
2017-11-06T17:12:55.263Z,3.85
2017-11-06T17:15:23.301Z,3.60
2017-11-06T17:17:52.135Z,4.20
2017-11-06T17:20:20.227Z,4.25
2017-11-06T17:22:48.285Z,4.10
2017-11-06T17:25:16.333Z,4.75
2017-11-06T17:27:46.262Z,4.18
2017-11-06T17:30:14.727Z,4.53
2017-11-06T17:32:42.761Z,4.97
2017-11-06T17:35:11.595Z,4.72
2017-11-06T17:37:39.641Z,5.00
2017-11-06T17:40:08.465Z,4.82
2017-11-06T17:42:36.522Z,6.28
2017-11-06T17:45:04.581Z,5.05
2017-11-06T17:47:32.629Z,5.20
2017-11-06T17:50:01.495Z,6.37
2017-11-06T17:52:29.521Z,9.20
2017-11-06T17:54:57.677Z,10.52
2017-11-06T17:57:26.503Z,9.05
2017-11-06T17:59:54.562Z,10.60
2017-11-06T18:02:22.760Z,12.02
2017-11-06T18:04:51.170Z,9.05
2017-11-06T18:07:19.259Z,8.40
2017-11-06T18:09:47.704Z,9.73
2017-11-06T18:12:15.766Z,10.15
2017-11-06T18:14:44.229Z,9.05
2017-11-06T18:17:12.282Z,8.57
2017-11-06T18:19:40.351Z,8.30
2017-11-06T18:22:09.157Z,8.27
2017-11-06T18:24:37.217Z,7.60
2017-11-06T18:27:05.665Z,8.63
2017-11-06T18:29:34.490Z,6.70
2017-11-06T18:32:03.069Z,6.97
2017-11-06T18:34:31.127Z,6.18
2017-11-06T18:36:59.967Z,5.62
2017-11-06T18:39:28.025Z,6.10
2017-11-06T18:41:56.178Z,5.15
2017-11-06T18:44:25.758Z,5.87
2017-11-06T18:46:54.577Z,5.87
2017-11-06T18:49:23.385Z,3.62
2017-11-06T18:51:51.445Z,4.82
2017-11-06T18:54:19.497Z,5.37
2017-11-06T18:56:48.811Z,4.15
2017-11-06T18:59:16.862Z,3.90
2017-11-06T19:01:45.678Z,3.33
2017-11-06T19:04:13.736Z,8.70
2017-11-06T19:06:41.801Z,8.05
2017-11-06T19:09:09.865Z,5.10
2017-11-06T19:11:38.688Z,4.18
2017-11-06T19:14:06.739Z,3.25
2017-11-06T19:16:34.793Z,3.05
2017-11-06T19:19:03.617Z,2.60
2017-11-06T19:21:31.705Z,2.92
2017-11-06T19:24:00.181Z,3.25
2017-11-06T19:26:28.242Z,2.60
2017-11-06T19:28:57.640Z,2.45
2017-11-06T19:31:25.610Z,3.20
2017-11-06T19:33:53.677Z,3.05
2017-11-06T19:36:21.722Z,3.35
2017-11-06T19:38:50.543Z,3.50
2017-11-06T19:41:18.607Z,3.70
2017-11-06T19:43:46.715Z,3.50
2017-11-06T19:46:15.170Z,3.70
2017-11-06T19:48:43.222Z,3.75
2017-11-06T19:51:11.680Z,3.95
2017-11-06T19:53:39.813Z,4.62
2017-11-06T19:56:08.572Z,3.65
2017-11-06T19:58:36.702Z,4.55
2017-11-06T20:01:06.106Z,4.00
2017-11-06T20:03:35.211Z,4.30
2017-11-06T20:06:05.047Z,3.35
2017-11-06T20:08:33.781Z,3.90
2017-11-06T20:11:03.806Z,3.50
2017-11-06T20:13:32.638Z,3.78
2017-11-06T20:16:01.469Z,4.65
2017-11-06T20:18:29.541Z,3.37
2017-11-06T20:20:57.981Z,3.97
2017-11-06T20:23:26.793Z,4.65
2017-11-06T20:25:58.888Z,7.60
2017-11-06T20:28:26.934Z,8.85
2017-11-06T20:30:56.126Z,10.07
2017-11-06T20:33:24.963Z,11.88
2017-11-06T20:35:53.017Z,11.48
2017-11-06T20:38:22.221Z,11.35
2017-11-06T20:40:51.050Z,10.27
2017-11-06T20:43:19.869Z,9.20
2017-11-06T20:45:47.921Z,9.65
2017-11-06T20:48:15.993Z,7.65
2017-11-06T20:50:45.183Z,6.25
2017-11-06T20:53:14.872Z,6.15
2017-11-06T20:55:44.276Z,5.75
2017-11-06T20:58:12.992Z,5.05
2017-11-06T21:00:41.048Z,7.37
2017-11-06T21:03:09.871Z,6.25
2017-11-06T21:05:37.934Z,8.88
2017-11-06T21:08:05.993Z,13.40
2017-11-06T21:10:34.826Z,11.35
2017-11-06T21:13:03.264Z,9.05
2017-11-06T21:15:32.098Z,10.02
2017-11-06T21:18:00.145Z,8.85
2017-11-06T21:20:28.184Z,9.70
2017-11-06T21:22:57.034Z,10.90
2017-11-06T21:25:25.097Z,13.88
2017-11-06T21:27:53.243Z,15.25
2017-11-06T21:30:26.913Z,9.60
2017-11-06T21:32:55.741Z,10.93
2017-11-06T21:35:24.192Z,7.30
2017-11-06T21:37:52.996Z,7.35
2017-11-06T21:40:21.053Z,6.60
2017-11-06T21:42:49.861Z,4.50
2017-11-06T21:45:17.922Z,4.07
2017-11-06T21:47:46.742Z,3.37
2017-11-06T21:50:15.185Z,3.62
2017-11-06T21:52:44.001Z,4.05
2017-11-06T21:55:12.829Z,3.20
2017-11-06T21:57:40.883Z,3.67
2017-11-06T22:00:09.338Z,3.58
2017-11-06T22:02:37.382Z,3.97
2017-11-06T22:05:06.197Z,3.60
2017-11-06T22:07:34.249Z,3.30
2017-11-06T22:10:03.056Z,3.28
2017-11-06T22:12:31.880Z,3.60
2017-11-06T22:14:59.946Z,3.30
2017-11-06T22:17:27.990Z,4.15
2017-11-06T22:19:56.058Z,3.30
2017-11-06T22:22:24.111Z,3.20
2017-11-06T22:24:52.563Z,3.30
2017-11-06T22:27:20.623Z,2.35
2017-11-06T22:29:48.661Z,3.35
2017-11-06T22:32:16.724Z,3.35
2017-11-06T22:34:45.530Z,3.67
2017-11-06T22:37:13.583Z,3.28
2017-11-06T22:39:41.650Z,2.85
2017-11-06T22:42:09.709Z,3.10
2017-11-06T22:44:38.773Z,2.60
2017-11-06T22:47:07.202Z,2.95
2017-11-06T22:49:35.261Z,3.10
2017-11-06T22:52:04.072Z,3.50
2017-11-06T22:54:32.125Z,3.50
2017-11-06T22:57:00.186Z,3.10
2017-11-06T22:59:28.995Z,3.65
2017-11-06T23:01:57.067Z,3.42
2017-11-06T23:04:25.113Z,3.20
2017-11-06T23:06:53.930Z,3.90
2017-11-06T23:09:21.980Z,4.07
2017-11-06T23:11:50.803Z,3.65
2017-11-06T23:14:18.861Z,3.40
2017-11-06T23:16:46.900Z,3.28
2017-11-06T23:19:14.950Z,3.47
2017-11-06T23:21:44.504Z,3.47
2017-11-06T23:24:12.554Z,2.72
2017-11-06T23:26:40.606Z,3.00
2017-11-06T23:29:08.645Z,3.47
2017-11-06T23:31:37.109Z,2.60
2017-11-06T23:34:05.556Z,3.17
2017-11-06T23:36:33.597Z,2.83
2017-11-06T23:39:01.644Z,3.62
2017-11-06T23:41:29.689Z,3.75
2017-11-06T23:43:58.501Z,2.72
2017-11-06T23:46:26.541Z,3.72
2017-11-06T23:48:55.377Z,3.20
2017-11-06T23:51:23.421Z,3.10
2017-11-06T23:53:51.466Z,4.20
2017-11-06T23:56:20.282Z,4.10
2017-11-06T23:58:48.329Z,3.00
